Airfield :
LOGIN :

Register | Disclaimer

   EN    FR    IT 

 










Legend :    VFR   Marginal VFR   IFR   Intensive IFR   Very Intensive IFR
Visi :
Ceiling :
>= 8 km
>= 3000ft
5 to 8 km
1000 to 3000 ft
1500m to 5 km
500 to 1000 ft
800 to 1500m
200 to 500 ft
< 800m
< 200 ft
Symbols :   Thunderstorms  Fog  Heavy snow  Heavy precipitations  Wind > 20 kt
SIGMETs :     Misc.  Thunderstorms  Icing  Turbulence  Mountain Waves  Volcanic Ashes







- Airport Elevation : 3 ft
- IATA code : DHR


EHKD - Den Helder De Kooy

CURRENT METAR :
  • 271255Z AUTO 14015KT 110V180 9999 FEW180 30/12 Q1015 BLU 15013KT CAVOK

EXPIRED METARs :
  • 271225Z AUTO 14015KT 100V170 9999 SCT170 29/12 Q1015 BLU 15013KT CAVOK
  • 271155Z AUTO 15014KT 100V190 9999 NCD 29/12 Q1015 BLU 15013KT CAVOK
  • 271125Z AUTO 14014KT 100V170 9999 FEW400 28/12 Q1015 BLU
  • 271055Z AUTO 14013KT 100V180 9999 NCD 28/13 Q1016 BLU
  • 271025Z AUTO 14013KT 090V180 9999 FEW130 27/13 Q1015 BLU

TAF TAF EHKD
Valid from the 27 at 13:00 until the 28 at 01:00 UTC


271250Z 2713/2801 14010KT CAVOK
TEMPO 2713/2717 16015G25KT
BECMG 2715/2717 22010KT
PROB30
TEMPO 2723/2801 4000 TSRA SCT060CB
No reported NOTAMs for that airfield.



MET'MAP, your aeronautical weather chart ! - Copyright ORBIFLY December 2007 - Disclaimer

ORBIFLY MET'MAP TEAM :

Programming & Development : Alexandra Zaïnal
Concept & Development : Baudouin d'Aumeries
Co-Development & Prog : Marc-Olivier Méhu
Technical & hardware support : Manuel Goepfert

Contact : metmap@orbifly.com




SOURCES & CREDITS :

   NOAA